createdAt,value
2023-11-26T00:01:01.668Z,100628.16
2023-11-26T00:03:29.686Z,100640.59
2023-11-26T00:05:57.632Z,100632.16
2023-11-26T00:08:26.002Z,100634.16
2023-11-26T00:10:54.426Z,100634.97
2023-11-26T00:13:24.353Z,100625.38
2023-11-26T00:15:52.353Z,100631.75
2023-11-26T00:18:20.548Z,100631.75
2023-11-26T00:20:48.676Z,100638.97
2023-11-26T00:23:16.578Z,100641.44
2023-11-26T00:25:44.590Z,100639.13
2023-11-26T00:28:14.041Z,100640.69
2023-11-26T00:30:43.544Z,100643.00
2023-11-26T00:33:11.777Z,100642.97
2023-11-26T00:35:39.670Z,100641.34
2023-11-26T00:38:07.716Z,100645.31
2023-11-26T00:40:36.112Z,100648.13
2023-11-26T00:43:04.553Z,100653.72
2023-11-26T00:45:32.945Z,100663.78
2023-11-26T00:48:02.238Z,100670.69
2023-11-26T00:50:30.460Z,100672.72
2023-11-26T00:52:58.429Z,100684.75
2023-11-26T00:55:26.430Z,100674.34
2023-11-26T00:57:54.452Z,100679.84
2023-11-26T01:00:22.472Z,100683.84
2023-11-26T01:02:50.767Z,100679.78
2023-11-26T01:05:20.308Z,100684.22
2023-11-26T01:07:48.437Z,100684.72
2023-11-26T01:10:16.872Z,100689.63
2023-11-26T01:12:45.011Z,100697.66
2023-11-26T01:15:13.077Z,100699.72
2023-11-26T01:17:41.161Z,100709.75
2023-11-26T01:20:11.138Z,100709.75
2023-11-26T01:22:40.983Z,100707.25
2023-11-26T01:25:09.393Z,100709.63
2023-11-26T01:27:37.375Z,100711.19
2023-11-26T01:30:06.611Z,100712.31
2023-11-26T01:32:36.712Z,100707.25
2023-11-26T01:35:05.903Z,100707.25
2023-11-26T01:37:34.343Z,100703.38
2023-11-26T01:40:04.097Z,100707.34
2023-11-26T01:42:31.971Z,100705.44
2023-11-26T01:44:59.873Z,100705.84
2023-11-26T01:47:27.965Z,100703.50
2023-11-26T01:49:56.067Z,100706.72
2023-11-26T01:52:24.104Z,100710.72
2023-11-26T01:54:52.296Z,100713.94
2023-11-26T01:57:22.612Z,100709.94
2023-11-26T01:59:50.665Z,100711.91
2023-11-26T02:02:18.728Z,100711.84
2023-11-26T02:04:46.717Z,100715.84
2023-11-26T02:07:14.664Z,100716.91
2023-11-26T02:09:42.661Z,100712.22
2023-11-26T02:12:11.168Z,100712.22
2023-11-26T02:14:40.474Z,100711.91
2023-11-26T02:17:08.441Z,100717.06
2023-11-26T02:19:37.783Z,100720.75
2023-11-26T02:22:09.539Z,100729.94
2023-11-26T02:24:42.099Z,100732.34
2023-11-26T02:27:10.233Z,100730.78
2023-11-26T02:29:40.233Z,100729.25
2023-11-26T02:32:08.694Z,100730.03
2023-11-26T02:34:37.740Z,100736.38
2023-11-26T02:37:05.880Z,100733.25
2023-11-26T02:39:35.026Z,100742.88
2023-11-26T02:42:05.283Z,100738.13
2023-11-26T02:44:33.331Z,100737.25
2023-11-26T02:47:01.284Z,100743.25
2023-11-26T02:49:29.256Z,100745.19
2023-11-26T02:51:57.182Z,100748.75
2023-11-26T02:54:25.081Z,100744.31
2023-11-26T02:56:53.069Z,100752.69
2023-11-26T02:59:22.827Z,100759.47
2023-11-26T03:01:51.355Z,100758.41
2023-11-26T03:04:23.482Z,100758.00
2023-11-26T03:06:53.406Z,100751.59
2023-11-26T03:10:00.448Z,100754.41
2023-11-26T03:12:46.008Z,100756.16
2023-11-26T03:15:16.326Z,100770.94
2023-11-26T03:17:44.345Z,100763.81
2023-11-26T03:20:14.501Z,100755.72
2023-11-26T03:22:43.573Z,100768.56
2023-11-26T03:25:11.572Z,100761.31
2023-11-26T03:27:39.696Z,100771.00
2023-11-26T03:30:11.124Z,100773.00
2023-11-26T03:32:40.612Z,100773.75
2023-11-26T03:35:09.516Z,100771.03
2023-11-26T03:37:37.541Z,100775.03
2023-11-26T03:40:08.702Z,100778.16
2023-11-26T03:42:37.956Z,100774.06
2023-11-26T03:45:06.396Z,100775.63
2023-11-26T03:47:34.694Z,100762.72
2023-11-26T03:50:06.846Z,100765.06
2023-11-26T03:52:35.324Z,100775.13
2023-11-26T03:55:03.313Z,100775.25
2023-11-26T03:57:31.363Z,100773.19
2023-11-26T03:59:59.535Z,100774.81
2023-11-26T04:02:27.839Z,100779.59
2023-11-26T04:04:55.905Z,100776.47
2023-11-26T04:07:26.142Z,100772.28
2023-11-26T04:09:54.397Z,100789.09
2023-11-26T04:12:22.376Z,100790.69
2023-11-26T04:14:57.379Z,100789.41
2023-11-26T04:17:26.230Z,100790.59
2023-11-26T04:19:54.506Z,100794.59
2023-11-26T04:22:23.941Z,100794.53
2023-11-26T04:24:54.328Z,100800.22
2023-11-26T04:27:23.474Z,100801.00
2023-11-26T04:29:52.272Z,100802.75
2023-11-26T04:32:20.448Z,100807.53
2023-11-26T04:34:48.442Z,100801.94
2023-11-26T04:37:16.449Z,100802.75
2023-11-26T04:39:45.160Z,100808.72
2023-11-26T04:42:14.506Z,100809.84
2023-11-26T04:44:43.392Z,100809.03
2023-11-26T04:47:11.336Z,100811.34
2023-11-26T04:49:39.331Z,100816.97
2023-11-26T04:52:07.922Z,100820.16
2023-11-26T04:54:35.917Z,100813.72
2023-11-26T04:57:03.904Z,100820.06
2023-11-26T04:59:33.361Z,100823.31
2023-11-26T05:02:07.592Z,100821.69
2023-11-26T05:04:36.141Z,100822.16
2023-11-26T05:07:05.149Z,100824.94
2023-11-26T05:09:33.813Z,100832.28
2023-11-26T05:12:03.035Z,100830.78
2023-11-26T05:14:31.169Z,100829.59
2023-11-26T05:17:00.947Z,100836.88
2023-11-26T05:19:28.950Z,100843.78
2023-11-26T05:21:57.654Z,100832.97
2023-11-26T05:24:25.756Z,100839.03
2023-11-26T05:26:54.661Z,100831.38
2023-11-26T05:29:22.721Z,100840.66
2023-11-26T05:31:50.702Z,100833.41
2023-11-26T05:34:20.187Z,100836.59
2023-11-26T05:36:48.242Z,100837.09
2023-11-26T05:39:16.120Z,100844.69
2023-11-26T05:41:44.596Z,100847.91
2023-11-26T05:44:12.573Z,100849.09
2023-11-26T05:46:43.195Z,100844.63
2023-11-26T05:49:11.143Z,100846.69
2023-11-26T05:51:40.668Z,100851.13
2023-11-26T05:54:08.993Z,100843.91
2023-11-26T05:56:36.899Z,100852.31
2023-11-26T05:59:04.872Z,100854.75
2023-11-26T06:01:32.826Z,100857.53
2023-11-26T06:04:00.879Z,100860.00
2023-11-26T06:06:29.415Z,100855.53
2023-11-26T06:08:58.725Z,100866.41
2023-11-26T06:11:26.753Z,100866.03
2023-11-26T06:13:54.730Z,100866.34
2023-11-26T06:16:22.672Z,100876.44
2023-11-26T06:18:50.629Z,100875.25
2023-11-26T06:21:19.897Z,100880.06
2023-11-26T06:23:47.956Z,100879.19
2023-11-26T06:26:21.706Z,100884.78
2023-11-26T06:28:49.666Z,100882.50
2023-11-26T06:31:20.983Z,100887.78
2023-11-26T06:33:49.243Z,100891.28
2023-11-26T06:36:20.750Z,100890.97
2023-11-26T06:38:48.833Z,100891.19
2023-11-26T06:41:26.322Z,100892.78
2023-11-26T06:43:55.246Z,100887.19
2023-11-26T06:46:24.622Z,100893.69
2023-11-26T06:48:52.988Z,100890.88
2023-11-26T06:51:21.503Z,100891.28
2023-11-26T06:53:50.146Z,100896.84
2023-11-26T06:56:18.357Z,100900.03
2023-11-26T06:58:47.991Z,100897.72
2023-11-26T07:01:16.676Z,100900.13
2023-11-26T07:03:45.383Z,100894.84
2023-11-26T07:06:13.776Z,100898.63
2023-11-26T07:08:44.736Z,100907.25
2023-11-26T07:11:20.005Z,100911.25
2023-11-26T07:13:49.660Z,100915.94
2023-11-26T07:16:18.960Z,100917.41
2023-11-26T07:18:47.004Z,100910.13
2023-11-26T07:21:15.957Z,100923.38
2023-11-26T07:23:44.250Z,100927.44
2023-11-26T07:26:13.487Z,100921.47
2023-11-26T07:28:41.666Z,100931.94
2023-11-26T07:31:16.490Z,100924.69
2023-11-26T07:33:44.662Z,100938.38
2023-11-26T07:36:15.814Z,100939.91
2023-11-26T07:38:44.426Z,100942.22
2023-11-26T07:41:12.420Z,100944.59
2023-11-26T07:43:40.717Z,100940.50
2023-11-26T07:46:09.862Z,100945.19
2023-11-26T07:48:41.912Z,100942.81
2023-11-26T07:51:09.861Z,100939.19
2023-11-26T07:53:39.566Z,100937.97
2023-11-26T07:56:08.218Z,100943.47
2023-11-26T07:58:36.311Z,100937.50
2023-11-26T08:01:04.166Z,100937.16
2023-11-26T08:03:33.447Z,100940.00
2023-11-26T08:06:03.200Z,100942.97
2023-11-26T08:08:36.424Z,100939.47
2023-11-26T08:11:07.267Z,100944.72
2023-11-26T08:13:39.210Z,100945.53
2023-11-26T08:16:09.221Z,100954.41
2023-11-26T08:18:38.258Z,100949.94
2023-11-26T08:21:08.609Z,100945.00
2023-11-26T08:23:39.596Z,100946.13
2023-11-26T08:26:13.482Z,100952.50
2023-11-26T08:28:43.448Z,100947.59
2023-11-26T08:31:12.456Z,100958.09
2023-11-26T08:33:45.027Z,100948.41
2023-11-26T08:36:19.792Z,100950.53
2023-11-26T08:38:48.877Z,100956.06
2023-11-26T08:41:22.273Z,100957.75
2023-11-26T08:43:52.731Z,100954.53
2023-11-26T08:46:22.851Z,100948.09
2023-11-26T08:48:53.711Z,100958.22
2023-11-26T08:51:23.615Z,100960.13
2023-11-26T08:53:51.688Z,100968.25
2023-11-26T08:56:20.002Z,100973.88
2023-11-26T08:58:48.321Z,100976.22
2023-11-26T09:01:16.432Z,100985.09
2023-11-26T09:03:44.658Z,100979.47
2023-11-26T09:06:12.663Z,100983.47
2023-11-26T09:08:42.304Z,100978.72
2023-11-26T09:11:10.159Z,100985.16
2023-11-26T09:13:38.834Z,100982.00
2023-11-26T09:16:07.710Z,100975.91
2023-11-26T09:18:38.420Z,100981.53
2023-11-26T09:21:07.178Z,100969.88
2023-11-26T09:23:35.530Z,100980.66
2023-11-26T09:26:06.106Z,100983.47
2023-11-26T09:28:34.026Z,100986.72
2023-11-26T09:31:05.229Z,100988.34
2023-11-26T09:33:33.760Z,100989.13
2023-11-26T09:36:02.298Z,100988.34
2023-11-26T09:38:30.269Z,100987.59
2023-11-26T09:40:58.217Z,100984.34
2023-11-26T09:43:27.678Z,100977.91
2023-11-26T09:45:55.954Z,100983.53
2023-11-26T09:48:23.974Z,100985.97
2023-11-26T09:50:53.805Z,100992.03
2023-11-26T09:53:22.454Z,100998.38
2023-11-26T09:55:51.266Z,100993.56
2023-11-26T09:58:19.220Z,100983.97
2023-11-26T10:00:48.731Z,100984.03
2023-11-26T10:03:16.972Z,100983.53
2023-11-26T10:05:44.995Z,100982.84
2023-11-26T10:08:29.396Z,100988.47
2023-11-26T10:10:57.439Z,100992.44
2023-11-26T10:13:37.672Z,100986.09
2023-11-26T10:16:09.055Z,100992.97
2023-11-26T10:18:41.712Z,100993.34
2023-11-26T10:21:09.923Z,101001.88
2023-11-26T10:23:40.111Z,100999.03
2023-11-26T10:26:18.931Z,100997.38
2023-11-26T10:28:59.714Z,100993.03
2023-11-26T10:31:29.213Z,100990.31
2023-11-26T10:34:13.092Z,100990.22
2023-11-26T10:36:41.144Z,100984.69
2023-11-26T10:39:11.047Z,100987.94
2023-11-26T10:41:39.751Z,100993.03
2023-11-26T10:44:07.879Z,100993.91
2023-11-26T10:46:38.003Z,100983.44
2023-11-26T10:49:11.288Z,100993.41
2023-11-26T10:51:40.788Z,100989.50
2023-11-26T10:54:12.685Z,100987.50
2023-11-26T10:56:41.352Z,100979.44
2023-11-26T10:59:10.110Z,100991.84
2023-11-26T11:01:40.063Z,100979.00
2023-11-26T11:04:13.368Z,100987.84
2023-11-26T11:06:41.598Z,100990.22
2023-11-26T11:09:14.504Z,100981.06
2023-11-26T11:11:48.696Z,100979.72
2023-11-26T11:14:17.521Z,100986.22
2023-11-26T11:16:46.972Z,100983.88
2023-11-26T11:19:35.073Z,100987.81
2023-11-26T11:22:03.116Z,100981.22
2023-11-26T11:24:31.989Z,100975.56
2023-11-26T11:27:00.220Z,100973.91
2023-11-26T11:29:34.890Z,100981.09
2023-11-26T11:32:04.372Z,100978.28
2023-11-26T11:34:32.618Z,100977.88
2023-11-26T11:37:01.498Z,100976.97
2023-11-26T11:39:45.724Z,100976.16
2023-11-26T11:42:15.087Z,100990.56
2023-11-26T11:44:44.514Z,100989.22
2023-11-26T11:47:15.120Z,100984.06
2023-11-26T11:50:01.522Z,100983.19
2023-11-26T11:52:29.846Z,100982.47
2023-11-26T11:55:02.073Z,100980.00
2023-11-26T11:57:30.685Z,100980.09
2023-11-26T12:00:05.378Z,100981.28
2023-11-26T12:02:36.114Z,100975.28
2023-11-26T12:05:04.697Z,100972.84
2023-11-26T12:07:33.960Z,100973.59
2023-11-26T12:10:03.032Z,100982.28
2023-11-26T12:12:31.230Z,100981.88
2023-11-26T12:15:08.987Z,100964.16
2023-11-26T12:17:38.445Z,100966.94
2023-11-26T12:20:11.917Z,100966.94
2023-11-26T12:22:45.476Z,100967.75
2023-11-26T12:25:14.806Z,100955.28
2023-11-26T12:27:42.803Z,100959.63
2023-11-26T12:30:15.271Z,100958.81
2023-11-26T12:32:44.699Z,100949.22
2023-11-26T12:35:13.866Z,100958.03
2023-11-26T12:37:44.576Z,100958.81
2023-11-26T12:40:13.424Z,100962.41
2023-11-26T12:42:42.970Z,100949.22
2023-11-26T12:45:12.338Z,100947.91
2023-11-26T12:47:52.672Z,100943.63
2023-11-26T12:50:20.982Z,100945.69
2023-11-26T12:52:49.659Z,100944.50
2023-11-26T12:55:17.927Z,100943.09
2023-11-26T12:57:47.239Z,100943.22
2023-11-26T13:00:16.285Z,100930.47
2023-11-26T13:02:47.729Z,100926.00
2023-11-26T13:05:28.029Z,100926.47
2023-11-26T13:07:56.582Z,100924.03
2023-11-26T13:10:39.565Z,100924.34
2023-11-26T13:13:07.722Z,100919.84
2023-11-26T13:15:35.880Z,100929.44
2023-11-26T13:18:03.992Z,100924.66
2023-11-26T13:20:33.391Z,100921.47
2023-11-26T13:23:03.973Z,100917.47
2023-11-26T13:25:35.403Z,100917.25
2023-11-26T13:28:06.294Z,100916.03
2023-11-26T13:30:38.964Z,100922.47
2023-11-26T13:33:07.154Z,100908.88
2023-11-26T13:35:39.744Z,100908.88
2023-11-26T13:38:09.812Z,100908.94
2023-11-26T13:40:39.289Z,100910.88
2023-11-26T13:43:08.070Z,100909.31
2023-11-26T13:45:36.884Z,100912.56
2023-11-26T13:48:10.873Z,100914.47
2023-11-26T13:50:41.837Z,100915.31
2023-11-26T13:53:10.990Z,100919.59
2023-11-26T13:55:40.762Z,100921.22
2023-11-26T13:58:08.781Z,100925.50
2023-11-26T14:00:36.824Z,100924.69
2023-11-26T14:03:06.276Z,100924.69
2023-11-26T14:05:34.848Z,100927.97
2023-11-26T14:08:04.435Z,100936.41
2023-11-26T14:10:32.600Z,100935.31
2023-11-26T14:13:00.891Z,100926.47
2023-11-26T14:15:29.211Z,100928.09
2023-11-26T14:17:58.807Z,100930.16
2023-11-26T14:20:27.075Z,100924.09
2023-11-26T14:22:54.998Z,100925.69
2023-11-26T14:25:24.322Z,100931.38
2023-11-26T14:27:52.966Z,100930.50
2023-11-26T14:30:20.852Z,100933.69
2023-11-26T14:32:49.464Z,100924.84
2023-11-26T14:35:17.490Z,100930.31
2023-11-26T14:37:45.532Z,100926.66
2023-11-26T14:40:14.606Z,100927.50
2023-11-26T14:42:45.063Z,100927.44
2023-11-26T14:45:13.389Z,100930.31
2023-11-26T14:47:42.024Z,100929.16
2023-11-26T14:50:10.118Z,100929.56
2023-11-26T14:52:39.788Z,100927.66
2023-11-26T14:55:13.978Z,100923.19
2023-11-26T14:57:42.797Z,100920.03
2023-11-26T15:00:13.738Z,100917.53
2023-11-26T15:02:41.947Z,100916.44
2023-11-26T15:05:13.363Z,100921.59
2023-11-26T15:07:42.777Z,100909.63
2023-11-26T15:10:12.703Z,100902.41
2023-11-26T15:12:41.087Z,100919.97
2023-11-26T15:15:12.254Z,100905.63
2023-11-26T15:17:43.280Z,100898.31
2023-11-26T15:20:14.126Z,100893.53
2023-11-26T15:22:43.242Z,100890.28
2023-11-26T15:25:12.711Z,100889.41
2023-11-26T15:27:42.481Z,100885.41
2023-11-26T15:30:12.375Z,100882.59
2023-11-26T15:32:41.247Z,100880.69
2023-11-26T15:35:13.073Z,100880.69
2023-11-26T15:37:41.836Z,100876.69
2023-11-26T15:40:12.979Z,100885.50
2023-11-26T15:42:41.567Z,100882.31
2023-11-26T15:45:13.583Z,100880.31
2023-11-26T15:47:42.012Z,100880.25
2023-11-26T15:50:13.074Z,100882.31
2023-11-26T15:52:41.099Z,100883.19
2023-11-26T15:55:10.998Z,100887.59
2023-11-26T15:57:39.308Z,100888.06
2023-11-26T16:00:08.912Z,100879.19
2023-11-26T16:02:43.188Z,100889.69
2023-11-26T16:05:13.294Z,100882.38
2023-11-26T16:07:41.332Z,100895.22
2023-11-26T16:10:10.024Z,100892.03
2023-11-26T16:12:38.329Z,100894.41
2023-11-26T16:15:06.725Z,100896.47
2023-11-26T16:17:35.363Z,100902.44
2023-11-26T16:20:05.190Z,100907.31
2023-11-26T16:22:36.755Z,100890.41
2023-11-26T16:25:07.413Z,100890.41
2023-11-26T16:27:35.437Z,100890.41
2023-11-26T16:30:04.998Z,100900.91
2023-11-26T16:32:34.205Z,100886.88
2023-11-26T16:35:02.131Z,100885.69
2023-11-26T16:37:32.256Z,100888.06
2023-11-26T16:40:11.139Z,100890.56
2023-11-26T16:42:40.563Z,100892.91
2023-11-26T16:45:12.829Z,100880.00
2023-11-26T16:47:41.068Z,100883.25
2023-11-26T16:50:09.221Z,100885.69
2023-11-26T16:52:37.146Z,100889.22
2023-11-26T16:55:06.071Z,100892.78
2023-11-26T16:57:34.159Z,100889.69
2023-11-26T17:00:02.250Z,100887.19
2023-11-26T17:02:32.026Z,100886.00
2023-11-26T17:05:00.290Z,100879.63
2023-11-26T17:07:28.202Z,100884.44
2023-11-26T17:09:56.407Z,100885.59
2023-11-26T17:12:25.803Z,100883.19
2023-11-26T17:14:53.715Z,100880.75
2023-11-26T17:17:24.615Z,100881.56
2023-11-26T17:19:52.977Z,100880.00
2023-11-26T17:22:21.002Z,100883.59
2023-11-26T17:24:49.028Z,100875.19
2023-11-26T17:27:17.014Z,100874.34
2023-11-26T17:29:46.465Z,100870.66
2023-11-26T17:32:14.385Z,100869.34
2023-11-26T17:34:43.977Z,100869.34
2023-11-26T17:37:11.922Z,100871.25
2023-11-26T17:39:39.990Z,100870.53
2023-11-26T17:42:08.533Z,100866.06
2023-11-26T17:44:36.569Z,100856.56
2023-11-26T17:47:08.831Z,100860.63
2023-11-26T17:49:40.494Z,100862.22
2023-11-26T17:52:08.426Z,100863.78
2023-11-26T17:54:36.459Z,100860.16
2023-11-26T17:57:04.482Z,100861.47
2023-11-26T17:59:32.574Z,100863.84
2023-11-26T18:02:00.620Z,100863.84
2023-11-26T18:04:30.109Z,100856.56
2023-11-26T18:06:58.162Z,100859.00
2023-11-26T18:09:26.128Z,100856.50
2023-11-26T18:11:54.127Z,100854.34
2023-11-26T18:14:22.159Z,100852.31
2023-11-26T18:16:53.618Z,100858.72
2023-11-26T18:19:23.137Z,100862.72
2023-11-26T18:21:53.370Z,100853.56
2023-11-26T18:24:21.389Z,100860.47
2023-11-26T18:26:49.297Z,100867.72
2023-11-26T18:29:17.306Z,100864.91
2023-11-26T18:31:45.554Z,100862.13
2023-11-26T18:34:13.868Z,100862.13
2023-11-26T18:36:42.453Z,100868.47
2023-11-26T18:39:11.799Z,100865.22
2023-11-26T18:41:39.738Z,100857.91
2023-11-26T18:44:08.782Z,100867.88
2023-11-26T18:46:37.596Z,100862.66
2023-11-26T18:49:05.676Z,100868.19
2023-11-26T18:51:33.984Z,100859.34
2023-11-26T18:54:01.968Z,100859.34
2023-11-26T18:56:31.316Z,100863.75
2023-11-26T18:59:04.731Z,100866.56
2023-11-26T19:01:32.758Z,100865.38
2023-11-26T19:04:00.705Z,100850.31
2023-11-26T19:06:28.711Z,100844.31
2023-11-26T19:08:57.468Z,100846.78
2023-11-26T19:11:27.447Z,100851.19
2023-11-26T19:13:57.928Z,100838.78
2023-11-26T19:16:27.035Z,100848.09
2023-11-26T19:18:55.002Z,100850.91
2023-11-26T19:21:23.129Z,100859.72
2023-11-26T19:23:52.314Z,100854.56
2023-11-26T19:26:21.089Z,100855.00
2023-11-26T19:28:49.420Z,100858.84
2023-11-26T19:31:20.267Z,100855.31
2023-11-26T19:33:49.883Z,100858.53
2023-11-26T19:36:18.623Z,100852.81
2023-11-26T19:38:47.003Z,100849.63
2023-11-26T19:41:15.555Z,100850.00
2023-11-26T19:43:43.561Z,100856.50
2023-11-26T19:46:12.119Z,100861.34
2023-11-26T19:48:41.768Z,100860.53
2023-11-26T19:51:16.835Z,100851.00
2023-11-26T19:53:47.008Z,100844.50
2023-11-26T19:56:16.321Z,100849.75
2023-11-26T19:58:44.772Z,100836.56
2023-11-26T20:01:13.338Z,100828.56
2023-11-26T20:03:43.349Z,100826.94
2023-11-26T20:06:12.899Z,100829.44
2023-11-26T20:08:41.448Z,100837.41
2023-11-26T20:11:09.998Z,100839.03
2023-11-26T20:13:38.012Z,100836.66
2023-11-26T20:16:06.465Z,100835.06
2023-11-26T20:18:35.317Z,100822.19
2023-11-26T20:21:07.046Z,100816.56
2023-11-26T20:23:35.872Z,100817.34
2023-11-26T20:26:04.043Z,100814.16
2023-11-26T20:28:32.047Z,100816.16
2023-11-26T20:31:07.955Z,100819.38
2023-11-26T20:33:37.775Z,100820.72
2023-11-26T20:36:08.852Z,100826.31
2023-11-26T20:38:38.189Z,100814.31
2023-11-26T20:41:06.250Z,100812.59
2023-11-26T20:43:34.243Z,100807.00
2023-11-26T20:46:02.425Z,100813.03
2023-11-26T20:48:30.621Z,100814.97
2023-11-26T20:50:58.513Z,100810.97
2023-11-26T20:53:27.988Z,100803.00
2023-11-26T20:55:55.973Z,100799.00
2023-11-26T20:58:28.641Z,100806.22
2023-11-26T21:00:56.800Z,100819.03
2023-11-26T21:03:25.243Z,100815.41
2023-11-26T21:05:53.189Z,100817.44
2023-11-26T21:08:21.973Z,100803.00
2023-11-26T21:10:51.452Z,100812.53
2023-11-26T21:13:19.549Z,100803.00
2023-11-26T21:15:47.613Z,100810.16
2023-11-26T21:18:17.303Z,100804.59
2023-11-26T21:20:45.229Z,100810.97
2023-11-26T21:23:13.249Z,100818.22
2023-11-26T21:25:41.547Z,100827.78
2023-11-26T21:28:11.116Z,100822.19
2023-11-26T21:30:39.048Z,100816.63
2023-11-26T21:33:07.109Z,100815.84
2023-11-26T21:35:35.013Z,100820.63
2023-11-26T21:38:02.940Z,100803.06
2023-11-26T21:40:30.937Z,100786.97
2023-11-26T21:42:59.057Z,100782.16
2023-11-26T21:45:28.882Z,100780.53
2023-11-26T21:47:59.916Z,100778.16
2023-11-26T21:50:31.167Z,100778.16
2023-11-26T21:52:59.178Z,100781.41
2023-11-26T21:55:27.066Z,100776.16
2023-11-26T21:57:55.023Z,100775.81
2023-11-26T22:00:22.913Z,100779.75
2023-11-26T22:02:52.481Z,100778.94
2023-11-26T22:05:20.585Z,100773.00
2023-11-26T22:07:48.509Z,100782.16
2023-11-26T22:10:16.496Z,100766.06
2023-11-26T22:12:44.396Z,100774.47
2023-11-26T22:15:12.791Z,100778.94
2023-11-26T22:17:40.811Z,100770.88
2023-11-26T22:20:11.234Z,100764.44
2023-11-26T22:22:42.127Z,100765.22
2023-11-26T22:25:11.592Z,100753.19
2023-11-26T22:27:39.580Z,100756.03
2023-11-26T22:30:11.372Z,100765.22
2023-11-26T22:32:40.648Z,100765.25
2023-11-26T22:35:11.620Z,100770.06
2023-11-26T22:37:40.713Z,100762.84
2023-11-26T22:40:09.208Z,100773.50
2023-11-26T22:42:37.766Z,100771.53
2023-11-26T22:45:07.122Z,100768.97
2023-11-26T22:47:35.207Z,100780.19
2023-11-26T22:50:03.397Z,100771.34
2023-11-26T22:52:33.296Z,100780.91
2023-11-26T22:55:01.335Z,100781.81
2023-11-26T22:57:29.946Z,100772.19
2023-11-26T22:59:58.137Z,100774.25
2023-11-26T23:02:26.106Z,100764.25
2023-11-26T23:04:54.583Z,100775.50
2023-11-26T23:07:22.485Z,100775.56
2023-11-26T23:09:51.876Z,100778.78
2023-11-26T23:12:19.996Z,100778.25
2023-11-26T23:14:48.100Z,100760.97
2023-11-26T23:17:16.291Z,100762.94
2023-11-26T23:19:44.416Z,100748.44
2023-11-26T23:22:13.713Z,100748.78
2023-11-26T23:24:41.669Z,100762.38
2023-11-26T23:27:11.083Z,100757.94
2023-11-26T23:29:38.981Z,100761.56
2023-11-26T23:32:07.395Z,100752.75
2023-11-26T23:34:35.373Z,100752.44
2023-11-26T23:37:03.509Z,100759.25
2023-11-26T23:39:32.071Z,100758.94
2023-11-26T23:41:59.994Z,100752.84
2023-11-26T23:44:29.428Z,100755.25
2023-11-26T23:46:57.465Z,100749.53
2023-11-26T23:49:25.441Z,100749.53
2023-11-26T23:51:53.428Z,100747.91
2023-11-26T23:54:21.322Z,100748.28
2023-11-26T23:56:49.274Z,100739.94
2023-11-26T23:59:17.217Z,100746.34
